Port Aransas, TX (78373)

6:13 PM CST on November 23, 2014 (GMT -0600)
Shutters PortA | Change Station
CLOSE
Current Station
Personal Weather Station
Location: Port Aransas, TX
Elevation: 16 ft
Nearby Weather Stations

Elev 16 ft 27.84 °N, 97.06 °W | Updated 13 minutes ago

Clear
Clear
67.9 °F
Feels Like 67.9 °F
N
3.0
Wind Variable Wind from SSW
Gusts 8.0 mph

Today
High -- | Low -- °F
--% Chance of Precip.
Yesterday
High -- | Low -- °F
Precip. -- in
6:55 AM 5:33 PM
Waxing Crescent, 3% visible
Pressure 29.63 in
Visibility 5.0 miles
Clouds Clear
Dew Point 66 °F
Humidity 92%
Rainfall 0.00 in
Snow Depth Not available.
UV 0 out of 12
Pollen 2.80 out of 12
Air Quality Not available.
Flu Activity Not available.
METAR KRAS 232355Z AUTO 18008KT 5SM BR CLR 19/18 A2963 RMK AO2 T01900180 10246 20190

More Conditions Fewer Conditions

Pressure 29.63 in
Visibility 5.0 miles
Clouds Clear
Dew Point 66 °F
Humidity 92%
Rainfall 0.00 in
Snow Depth Not available.
UV 0 out of 12
Pollen 2.80 out of 12
Air Quality Not available.
Flu Activity Not available.
METAR KRAS 232355Z AUTO 18008KT 5SM BR CLR 19/18 A2963 RMK AO2 T01900180 10246 20190

More Conditions Fewer Conditions

10-Day Weather Forecast

Almanac

Astronomy

Nov. 23, 2014 Rise Set
Actual Time
Civil Twilight
Nautical Twilight
Astronomical Twilight
Moon
Length of Visible Light
Length of Day
Tomorrow will be .
, % of the Moon is Illuminated

Today's Extremes

State Highs State Lows

Community

WunderPhotos

Upload Photos

1,773,216 photos uploaded!

WunderBlogs® & News

Nearby

Air Quality

  Air Quality AQ Index Pollutant
Not available.

Snow Depth

Station Depth Elevation

Earthquake Activity

City Distance Mag. Time & Date
Minimum magnitude displayed is 2.5.

Coastal Water Temperatures

Place Temperature

Nearby Weather Stations